Time;durP1;ratioP1;P1;durP2;ratioP2;P2;SDS_P1;SDS_P2;PMS_P1;PMS_P2;Temp;Humidity;BMP_temperature;BMP_pressure;BME280_temperature;BME280_humidity;BME280_pressure;Samples;Min_cycle;Max_cycle;Signal;HPM_P1;HPM_P2
2023/08/19 00:01:33;;;;;;;;;;;;;;;24.93;64.39;100655.81;4147818;28;20306;-63
2023/08/19 00:03:35;;;;;;;;;;;;;;;24.91;64.29;100655.97;4145426;28;19961;-63
2023/08/19 00:05:37;;;;;;;;;;;;;;;24.92;64.09;100656.78;4147798;28;20398;-64
2023/08/19 00:07:39;;;;;;;;;;;;;;;24.91;64.06;100652.41;4147079;28;19953;-64
2023/08/19 00:09:40;;;;;;;;;;;;;;;24.90;64.16;100651.56;4147731;28;19980;-64
2023/08/19 00:11:42;;;;;;;;;;;;;;;24.91;64.15;100660.47;4147067;28;19926;-64
2023/08/19 00:13:43;;;;;;;;;;;;;;;24.90;64.05;100656.97;4149607;28;20382;-63
2023/08/19 00:15:45;;;;;;;;;;;;;;;24.91;64.33;100655.09;4150453;28;19933;-63
2023/08/19 00:17:51;;;;;;;;;;;;;;;24.90;64.27;100664.16;4149300;28;19933;-64
2023/08/19 00:19:57;;;;;;;;;;;;;;;24.81;64.02;100647.94;4140115;28;19926;-63
2023/08/19 00:21:59;;;;;;;;;;;;;;;24.89;63.91;100679.47;4150620;28;20407;-63
2023/08/19 00:24:01;;;;;;;;;;;;;;;24.91;64.40;100680.19;4149509;28;19929;-63
2023/08/19 00:26:02;;;;;;;;;;;;;;;24.90;64.53;100680.31;4150190;28;20036;-63
2023/08/19 00:28:04;;;;;;;;;;;;;;;24.88;64.42;100675.91;4150308;28;20032;-63
2023/08/19 00:30:06;;;;;;;;;;;;;;;24.87;64.30;100682.31;4150241;28;19939;-63
2023/08/19 00:32:07;;;;;;;;;;;;;;;24.88;64.43;100692.06;4150445;28;19953;-63
2023/08/19 00:34:09;;;;;;;;;;;;;;;24.87;64.34;100686.84;4149609;28;19930;-63
2023/08/19 00:36:10;;;;;;;;;;;;;;;24.89;64.22;100690.22;4150098;28;19953;-63
2023/08/19 00:38:12;;;;;;;;;;;;;;;24.87;64.26;100689.53;4149905;28;20306;-63
2023/08/19 00:40:14;;;;;;;;;;;;;;;24.86;64.07;100693.19;4150265;28;20032;-63
2023/08/19 00:42:16;;;;;;;;;;;;;;;24.70;64.49;100661.56;4150060;28;19925;-63
2023/08/19 00:44:22;;;;;;;;;;;;;;;24.90;64.50;100691.94;4149106;28;19925;-64
2023/08/19 00:46:24;;;;;;;;;;;;;;;24.90;64.55;100688.38;4150073;28;19932;-63
2023/08/19 00:48:25;;;;;;;;;;;;;;;24.91;64.30;100690.94;4149908;28;19926;-63
2023/08/19 00:50:27;;;;;;;;;;;;;;;24.90;64.48;100689.25;4149975;28;20303;-63
2023/08/19 00:52:34;;;;;;;;;;;;;;;24.89;64.24;100684.84;4150023;28;20027;-63
2023/08/19 00:54:35;;;;;;;;;;;;;;;24.88;64.24;100683.97;4149068;28;20024;-63
2023/08/19 00:56:37;;;;;;;;;;;;;;;24.87;64.48;100689.53;4149730;28;19930;-63
2023/08/19 00:58:39;;;;;;;;;;;;;;;24.84;64.32;100685.28;4149924;28;19979;-63
2023/08/19 01:00:41;;;;;;;;;;;;;;;24.87;64.34;100684.13;4149781;28;19929;-64
2023/08/19 01:02:43;;;;;;;;;;;;;;;24.88;64.81;100683.97;4149906;28;19964;-63
2023/08/19 01:04:44;;;;;;;;;;;;;;;24.89;64.41;100684.84;4148719;28;19934;-63
2023/08/19 01:06:58;;;;;;;;;;;;;;;24.88;64.63;100685.84;4149680;28;20020;-63
2023/08/19 01:09:03;;;;;;;;;;;;;;;24.90;64.61;100689.25;4149517;28;19972;-63
2023/08/19 01:11:10;;;;;;;;;;;;;;;24.88;64.37;100694.75;4148661;28;20008;-63
2023/08/19 01:13:15;;;;;;;;;;;;;;;24.86;64.27;100688.69;4149272;28;20028;-64
2023/08/19 01:15:18;;;;;;;;;;;;;;;24.86;64.30;100696.75;4148121;28;19931;-63
2023/08/19 01:17:24;;;;;;;;;;;;;;;24.86;64.37;100686.00;4149815;28;19925;-63
2023/08/19 01:19:31;;;;;;;;;;;;;;;24.89;64.92;100698.31;4149714;28;20441;-63
2023/08/19 01:21:33;;;;;;;;;;;;;;;24.88;64.48;100696.59;4149442;28;19929;-62
2023/08/19 01:23:37;;;;;;;;;;;;;;;24.87;64.27;100701.16;4148905;28;20291;-63
2023/08/19 01:25:41;;;;;;;;;;;;;;;24.89;64.70;100701.00;4148779;28;19965;-63
2023/08/19 01:27:47;;;;;;;;;;;;;;;24.90;64.49;100701.81;4149388;28;20413;-63
2023/08/19 01:29:49;;;;;;;;;;;;;;;24.87;64.64;100709.22;4149226;28;19975;-64
2023/08/19 01:31:51;;;;;;;;;;;;;;;24.90;64.40;100709.91;4145772;28;19925;-64
2023/08/19 01:33:53;;;;;;;;;;;;;;;24.88;64.32;100705.50;4148959;28;19987;-63
2023/08/19 01:36:03;;;;;;;;;;;;;;;24.91;64.47;100720.53;4149036;28;19925;-64
2023/08/19 01:38:08;;;;;;;;;;;;;;;24.93;64.07;100706.91;4149234;28;20023;-63
2023/08/19 01:40:11;;;;;;;;;;;;;;;24.91;64.23;100712.47;4148903;28;20391;-64
2023/08/19 01:42:14;;;;;;;;;;;;;;;24.91;64.17;100717.84;4145603;28;19925;-63
2023/08/19 01:44:16;;;;;;;;;;;;;;;24.93;63.95;100725.75;4148626;28;20386;-63
2023/08/19 01:46:17;;;;;;;;;;;;;;;24.90;63.97;100726.91;4148936;28;19930;-63
2023/08/19 01:48:19;;;;;;;;;;;;;;;24.91;64.09;100722.34;4148891;28;20016;-63
2023/08/19 01:50:21;;;;;;;;;;;;;;;24.90;64.23;100734.97;4149154;28;19926;-64
2023/08/19 01:52:22;;;;;;;;;;;;;;;24.88;64.05;100724.34;4149091;28;20032;-63
2023/08/19 01:54:24;;;;;;;;;;;;;;;24.90;63.99;100734.97;4148267;28;19960;-63
2023/08/19 01:56:25;;;;;;;;;;;;;;;24.86;64.01;100728.16;4148739;28;20433;-63
2023/08/19 01:58:26;;;;;;;;;;;;;;;24.86;64.00;100736.25;4148855;28;20012;-62
2023/08/19 02:00:28;;;;;;;;;;;;;;;24.87;63.69;100737.94;4149105;28;19929;-63
2023/08/19 02:02:30;;;;;;;;;;;;;;;24.85;64.00;100732.72;4148663;28;20375;-63
2023/08/19 02:04:32;;;;;;;;;;;;;;;24.86;63.55;100736.25;4148237;28;20353;-63
2023/08/19 02:06:34;;;;;;;;;;;;;;;24.85;63.60;100742.66;4148738;28;19926;-63
2023/08/19 02:08:36;;;;;;;;;;;;;;;24.84;63.74;100736.41;4148229;28;19926;-63
2023/08/19 02:10:37;;;;;;;;;;;;;;;24.85;63.56;100742.66;4148768;28;19926;-63
2023/08/19 02:12:39;;;;;;;;;;;;;;;24.83;63.54;100742.78;4148432;28;19929;-62
2023/08/19 02:14:40;;;;;;;;;;;;;;;24.83;63.72;100741.94;4146655;28;20315;-64
2023/08/19 02:16:42;;;;;;;;;;;;;;;24.82;63.35;100749.13;4148716;28;19972;-63
2023/08/19 02:18:43;;;;;;;;;;;;;;;24.82;63.23;100746.44;4148661;28;19960;-63
2023/08/19 02:20:48;;;;;;;;;;;;;;;24.80;63.24;100742.22;4148490;28;19953;-63
2023/08/19 02:22:49;;;;;;;;;;;;;;;24.81;63.17;100750.16;4148381;28;19931;-62
2023/08/19 02:24:51;;;;;;;;;;;;;;;24.81;63.45;100757.38;4147877;28;19925;-62
2023/08/19 02:26:52;;;;;;;;;;;;;;;24.80;63.47;100755.66;4148609;28;20441;-63
2023/08/19 02:28:54;;;;;;;;;;;;;;;24.78;63.42;100758.50;4148411;28;20353;-64
2023/08/19 02:31:00;;;;;;;;;;;;;;;24.76;63.56;100767.72;4148798;28;19926;-64
2023/08/19 02:33:05;;;;;;;;;;;;;;;24.77;63.19;100764.03;4148218;28;20307;-63
2023/08/19 02:35:08;;;;;;;;;;;;;;;24.76;63.40;100760.50;4147241;28;20374;-64
2023/08/19 02:37:13;;;;;;;;;;;;;;;24.76;63.50;100768.56;4148061;28;19933;-64
2023/08/19 02:39:14;;;;;;;;;;;;;;;24.76;63.32;100779.31;4148372;28;20030;-64
2023/08/19 02:41:16;;;;;;;;;;;;;;;24.76;63.27;100775.78;4148417;28;19926;-64
2023/08/19 02:43:18;;;;;;;;;;;;;;;24.74;62.97;100769.69;4147942;28;19925;-64
2023/08/19 02:45:20;;;;;;;;;;;;;;;24.76;62.99;100781.16;4147683;28;20366;-63
2023/08/19 02:47:21;;;;;;;;;;;;;;;24.76;63.02;100779.31;4148172;28;20302;-64
2023/08/19 02:49:23;;;;;;;;;;;;;;;24.75;63.19;100783.00;4148129;28;19929;-64
2023/08/19 02:51:25;;;;;;;;;;;;;;;24.72;63.16;100781.44;4148075;28;20008;-63
2023/08/19 02:53:28;;;;;;;;;;;;;;;24.72;63.08;100783.31;4147687;28;19926;-64
2023/08/19 02:55:30;;;;;;;;;;;;;;;24.71;63.03;100787.81;4148156;28;20027;-64
2023/08/19 02:57:31;;;;;;;;;;;;;;;24.72;62.98;100796.75;4148384;28;19925;-63
2023/08/19 02:59:33;;;;;;;;;;;;;;;24.72;63.13;100794.06;4157888;28;20369;-63
2023/08/19 03:01:35;;;;;;;;;;;;;;;24.71;63.08;100801.25;4132286;28;19933;-64
2023/08/19 03:03:37;;;;;;;;;;;;;;;24.72;62.87;100799.44;4138093;28;19925;-64
2023/08/19 03:05:39;;;;;;;;;;;;;;;24.69;62.86;100797.91;4147686;28;19960;-64
2023/08/19 03:07:40;;;;;;;;;;;;;;;24.69;63.00;100799.72;4147910;28;19965;-64
2023/08/19 03:09:43;;;;;;;;;;;;;;;24.69;63.14;100799.72;4147613;28;19980;-64
2023/08/19 03:11:44;;;;;;;;;;;;;;;24.70;62.81;100804.09;4147874;28;19926;-63
2023/08/19 03:13:46;;;;;;;;;;;;;;;24.69;62.79;100797.91;4147285;28;20334;-64
2023/08/19 03:15:48;;;;;;;;;;;;;;;24.69;63.06;100794.34;4147963;28;19929;-63
2023/08/19 03:17:49;;;;;;;;;;;;;;;24.68;62.65;100796.19;4148103;28;20342;-64
2023/08/19 03:19:51;;;;;;;;;;;;;;;24.67;62.96;100807.94;4147731;28;20008;-64
2023/08/19 03:21:52;;;;;;;;;;;;;;;24.67;63.00;100802.56;4147653;28;19929;-64
2023/08/19 03:23:54;;;;;;;;;;;;;;;24.67;62.61;100812.47;4147283;28;19925;-64
2023/08/19 03:25:56;;;;;;;;;;;;;;;24.66;62.67;100808.09;4147820;28;20008;-64
2023/08/19 03:27:57;;;;;;;;;;;;;;;24.67;62.62;100807.94;4147901;28;19937;-64
2023/08/19 03:29:59;;;;;;;;;;;;;;;24.67;62.49;100809.78;4147691;28;19925;-64
2023/08/19 03:32:01;;;;;;;;;;;;;;;24.66;62.40;100805.41;4148011;28;20442;-63
2023/08/19 03:34:02;;;;;;;;;;;;;;;24.65;62.42;100812.56;4147286;28;19979;-64
2023/08/19 03:36:04;;;;;;;;;;;;;;;24.65;62.65;100814.44;4147455;28;20024;-64
2023/08/19 03:38:05;;;;;;;;;;;;;;;24.64;62.68;100821.66;4147830;28;20302;-64
2023/08/19 03:40:07;;;;;;;;;;;;;;;24.63;62.87;100819.09;4147558;28;20019;-64
2023/08/19 03:42:09;;;;;;;;;;;;;;;24.62;62.67;100818.25;4147834;28;19929;-63
2023/08/19 03:44:10;;;;;;;;;;;;;;;24.61;62.55;100819.25;4147061;28;20028;-64
2023/08/19 03:46:12;;;;;;;;;;;;;;;24.61;62.76;100823.78;4148042;28;19925;-63
2023/08/19 03:48:13;;;;;;;;;;;;;;;24.61;62.61;100831.84;4150984;28;19929;-63
2023/08/19 03:50:15;;;;;;;;;;;;;;;24.62;62.41;100825.47;4150435;28;19925;-63
2023/08/19 03:52:16;;;;;;;;;;;;;;;24.59;62.29;100845.41;4150889;28;19926;-63
2023/08/19 03:54:18;;;;;;;;;;;;;;;24.61;62.26;100842.63;4150514;28;19925;-64
2023/08/19 03:56:19;;;;;;;;;;;;;;;24.61;62.50;100848.00;4150458;28;19947;-64
2023/08/19 03:58:21;;;;;;;;;;;;;;;24.59;62.33;100858.88;4150735;28;19979;-64
2023/08/19 04:00:23;;;;;;;;;;;;;;;24.60;62.01;100857.03;4150929;28;20246;-63
2023/08/19 04:02:25;;;;;;;;;;;;;;;24.59;62.23;100864.25;4151125;28;19926;-64
2023/08/19 04:04:26;;;;;;;;;;;;;;;24.61;61.81;100872.19;4149862;28;19925;-64
2023/08/19 04:06:28;;;;;;;;;;;;;;;24.59;62.17;100871.47;4150695;28;20268;-63
2023/08/19 04:08:29;;;;;;;;;;;;;;;24.58;62.30;100873.28;4150603;28;20028;-64
2023/08/19 04:10:31;;;;;;;;;;;;;;;24.58;62.39;100869.78;4150546;28;19933;-64
2023/08/19 04:12:33;;;;;;;;;;;;;;;24.58;61.99;100881.38;4150421;28;20339;-63
2023/08/19 04:14:34;;;;;;;;;;;;;;;24.55;62.15;100877.13;4149994;28;19933;-63
2023/08/19 04:16:36;;;;;;;;;;;;;;;24.55;62.01;100885.19;4150156;28;19926;-62
2023/08/19 04:18:38;;;;;;;;;;;;;;;24.55;62.23;100892.41;4150237;28;19932;-63
2023/08/19 04:20:39;;;;;;;;;;;;;;;24.54;62.08;100896.94;4150116;28;20036;-63
2023/08/19 04:22:44;;;;;;;;;;;;;;;24.55;61.52;100897.81;4149893;28;20408;-63
2023/08/19 04:24:50;;;;;;;;;;;;;;;24.54;61.48;100905.00;4149967;28;19925;-63
2023/08/19 04:26:51;;;;;;;;;;;;;;;24.54;61.74;100912.22;4150214;28;19933;-64
2023/08/19 04:28:53;;;;;;;;;;;;;;;24.53;61.79;100914.09;4150127;28;20426;-63
2023/08/19 04:31:01;;;;;;;;;;;;;;;24.52;61.36;100911.50;4150294;28;20020;-63
2023/08/19 04:33:04;;;;;;;;;;;;;;;24.52;61.23;100914.19;4150029;28;19926;-63
2023/08/19 04:35:06;;;;;;;;;;;;;;;24.51;61.60;100920.56;4149785;28;19926;-64
2023/08/19 04:37:08;;;;;;;;;;;;;;;24.50;61.77;100917.03;4150164;28;20426;-63
2023/08/19 04:39:10;;;;;;;;;;;;;;;24.50;60.99;100929.66;4150359;28;19925;-64
2023/08/19 04:41:12;;;;;;;;;;;;;;;24.48;61.53;100924.38;4150293;28;20011;-64
2023/08/19 04:43:13;;;;;;;;;;;;;;;24.49;61.26;100927.94;4150072;28;20009;-64
2023/08/19 04:45:16;;;;;;;;;;;;;;;24.48;61.52;100931.63;4149491;28;20359;-64
2023/08/19 04:47:17;;;;;;;;;;;;;;;24.49;61.14;100941.38;4149666;28;19926;-63
2023/08/19 04:49:19;;;;;;;;;;;;;;;24.48;61.40;100937.00;4149757;28;19925;-64
2023/08/19 04:51:22;;;;;;;;;;;;;;;24.47;61.58;100943.34;4149929;28;20044;-64
2023/08/19 04:53:23;;;;;;;;;;;;;;;24.46;61.45;100936.28;4149735;28;19925;-64
2023/08/19 04:55:26;;;;;;;;;;;;;;;24.46;61.30;100955.09;4149297;28;19925;-63
2023/08/19 04:57:28;;;;;;;;;;;;;;;24.45;61.55;100950.69;4149555;28;19925;-64
2023/08/19 04:59:30;;;;;;;;;;;;;;;24.45;62.00;100953.38;4149370;28;19925;-64
2023/08/19 05:01:32;;;;;;;;;;;;;;;24.45;61.56;100961.44;4149466;28;20132;-64
2023/08/19 05:03:33;;;;;;;;;;;;;;;24.44;61.73;100962.47;4149577;28;19935;-64
2023/08/19 05:05:35;;;;;;;;;;;;;;;24.44;61.41;100957.09;4149200;28;19926;-64
2023/08/19 05:07:36;;;;;;;;;;;;;;;24.43;61.03;100966.97;4149372;28;20008;-64
2023/08/19 05:09:38;;;;;;;;;;;;;;;24.42;61.73;100969.81;4149678;28;20439;-64
2023/08/19 05:11:40;;;;;;;;;;;;;;;24.42;61.46;100977.88;4148582;28;19933;-64
2023/08/19 05:13:42;;;;;;;;;;;;;;;24.40;61.56;100978.88;4149456;28;19937;-64
2023/08/19 05:15:44;;;;;;;;;;;;;;;24.40;61.72;100975.34;4149002;28;19976;-64
2023/08/19 05:17:45;;;;;;;;;;;;;;;24.40;61.54;100978.88;4149028;28;19933;-64
2023/08/19 05:19:47;;;;;;;;;;;;;;;24.39;61.31;100982.53;4149664;28;19932;-64
2023/08/19 05:21:49;;;;;;;;;;;;;;;24.40;61.63;100983.41;4149677;28;19925;-63
2023/08/19 05:23:51;;;;;;;;;;;;;;;24.39;61.19;100981.69;4149052;28;19980;-64
2023/08/19 05:25:52;;;;;;;;;;;;;;;24.38;61.76;100980.84;4149131;28;19936;-64
2023/08/19 05:27:53;;;;;;;;;;;;;;;24.38;61.63;100986.22;4149143;28;19937;-64
2023/08/19 05:29:55;;;;;;;;;;;;;;;24.38;61.57;100988.91;4149290;28;20314;-64
2023/08/19 05:31:57;;;;;;;;;;;;;;;24.38;61.85;100990.75;4149250;28;19925;-63
2023/08/19 05:33:59;;;;;;;;;;;;;;;24.37;61.83;100991.72;4148631;28;20020;-64
2023/08/19 05:36:00;;;;;;;;;;;;;;;24.36;61.66;100996.28;4149375;28;19929;-64
2023/08/19 05:38:02;;;;;;;;;;;;;;;24.36;61.71;100998.97;4148994;28;19937;-64
2023/08/19 05:40:04;;;;;;;;;;;;;;;24.36;61.55;101004.34;4149379;28;19980;-63
2023/08/19 05:42:06;;;;;;;;;;;;;;;24.36;61.60;101007.03;4149400;28;19925;-64
2023/08/19 05:44:08;;;;;;;;;;;;;;;24.36;61.77;101019.59;4148435;28;19925;-64
2023/08/19 05:46:09;;;;;;;;;;;;;;;24.35;61.73;101018.75;4148668;28;19929;-63
2023/08/19 05:48:11;;;;;;;;;;;;;;;24.35;61.76;101016.06;4149060;28;19926;-63
2023/08/19 05:50:12;;;;;;;;;;;;;;;24.36;61.55;101014.22;4149081;28;19961;-62
2023/08/19 05:52:14;;;;;;;;;;;;;;;24.35;61.48;101020.56;4149029;28;20016;-63
2023/08/19 05:54:15;;;;;;;;;;;;;;;24.35;61.61;101024.13;4147255;28;19925;-63
2023/08/19 05:56:17;;;;;;;;;;;;;;;24.34;61.82;101022.44;4148880;28;20017;-63
2023/08/19 05:58:18;;;;;;;;;;;;;;;24.34;61.47;101022.44;4149058;28;19948;-63
2023/08/19 06:00:22;;;;;;;;;;;;;;;24.34;61.79;101025.13;4148276;28;19933;-63
2023/08/19 06:02:23;;;;;;;;;;;;;;;24.33;61.54;101018.03;4147838;28;19960;-63
2023/08/19 06:04:25;;;;;;;;;;;;;;;24.34;61.62;101018.88;4148376;28;19932;-63
2023/08/19 06:06:27;;;;;;;;;;;;;;;24.33;61.75;101027.94;4138102;28;19932;-63
2023/08/19 06:08:28;;;;;;;;;;;;;;;24.32;61.71;101032.47;4148850;28;19935;-63
2023/08/19 06:10:30;;;;;;;;;;;;;;;24.34;61.57;101041.25;4146344;28;19925;-63
2023/08/19 06:12:31;;;;;;;;;;;;;;;24.33;61.55;101041.41;4148612;28;20016;-63
2023/08/19 06:14:33;;;;;;;;;;;;;;;24.33;61.68;101027.94;4147777;28;19925;-63
2023/08/19 06:16:34;;;;;;;;;;;;;;;24.32;61.81;101032.47;4148562;28;20294;-63
2023/08/19 06:18:36;;;;;;;;;;;;;;;24.32;61.71;101032.47;4148775;28;20345;-63
2023/08/19 06:20:38;;;;;;;;;;;;;;;24.32;61.64;101051.28;4148393;28;19926;-64
2023/08/19 06:22:39;;;;;;;;;;;;;;;24.32;61.80;101059.34;4148800;28;19961;-63
2023/08/19 06:24:41;;;;;;;;;;;;;;;24.33;61.89;101054.84;4147817;28;20327;-64
2023/08/19 06:26:42;;;;;;;;;;;;;;;24.32;61.74;101067.41;4148363;28;19940;-63
2023/08/19 06:28:44;;;;;;;;;;;;;;;24.32;61.73;101069.25;4148247;28;19947;-63
2023/08/19 06:30:46;;;;;;;;;;;;;;;24.31;61.49;101079.13;4148351;28;19925;-61
2023/08/19 06:32:47;;;;;;;;;;;;;;;24.32;61.52;101085.38;4148641;28;19926;-63
2023/08/19 06:34:49;;;;;;;;;;;;;;;24.31;61.62;101092.56;4147642;28;20000;-64
2023/08/19 06:36:52;;;;;;;;;;;;;;;24.31;61.32;101099.81;4148478;28;20307;-63
2023/08/19 06:38:59;;;;;;;;;;;;;;;24.31;61.49;101102.50;4148405;28;19984;-62
2023/08/19 06:41:05;;;;;;;;;;;;;;;24.30;61.56;101104.31;4148068;28;19967;-63
2023/08/19 06:43:08;;;;;;;;;;;;;;;24.30;61.58;101100.78;4148046;28;19925;-63
2023/08/19 06:45:10;;;;;;;;;;;;;;;24.29;61.61;101105.31;4147602;28;20016;-63
2023/08/19 06:47:12;;;;;;;;;;;;;;;24.29;61.47;101105.31;4147973;28;19970;-63
2023/08/19 06:49:14;;;;;;;;;;;;;;;24.29;61.58;101115.22;4148314;28;20410;-63
2023/08/19 06:51:16;;;;;;;;;;;;;;;24.29;61.59;101134.88;4148034;28;19926;-62
2023/08/19 06:53:18;;;;;;;;;;;;;;;24.29;61.96;101129.50;4148368;28;20020;-61
2023/08/19 06:55:20;;;;;;;;;;;;;;;24.28;61.86;101111.69;4147586;28;20008;-62
2023/08/19 06:57:27;;;;;;;;;;;;;;;24.27;61.59;101107.28;4148101;28;20306;-62
2023/08/19 06:59:34;;;;;;;;;;;;;;;24.28;61.53;101116.19;4147889;28;19968;-63
2023/08/19 07:01:37;;;;;;;;;;;;;;;24.27;61.36;101125.25;4148027;28;19925;-63
2023/08/19 07:03:38;;;;;;;;;;;;;;;24.27;61.49;101127.94;4147993;28;19947;-63
2023/08/19 07:05:40;;;;;;;;;;;;;;;24.26;61.61;101132.47;4147617;28;19964;-63
2023/08/19 07:07:46;;;;;;;;;;;;;;;24.27;61.72;101136.00;4148021;28;19959;-63
2023/08/19 07:09:48;;;;;;;;;;;;;;;24.27;61.83;101133.31;4148306;28;19925;-63
2023/08/19 07:11:54;;;;;;;;;;;;;;;24.26;61.88;101135.16;4147757;28;20381;-63
2023/08/19 07:13:56;;;;;;;;;;;;;;;24.26;61.39;101127.06;4147757;28;19957;-63
2023/08/19 07:15:59;;;;;;;;;;;;;;;24.26;61.56;101137.00;4147479;28;19932;-63
2023/08/19 07:18:01;;;;;;;;;;;;;;;24.26;61.53;101140.53;4147649;28;19925;-63
2023/08/19 07:20:03;;;;;;;;;;;;;;;24.26;61.63;101131.63;4147953;28;19930;-63
2023/08/19 07:22:05;;;;;;;;;;;;;;;24.26;61.60;101120.88;4146274;28;20423;-63
2023/08/19 07:24:07;;;;;;;;;;;;;;;24.26;61.60;101118.19;4146720;28;19925;-64
2023/08/19 07:26:09;;;;;;;;;;;;;;;24.26;61.54;101120.88;4147424;28;19973;-63
2023/08/19 07:28:11;;;;;;;;;;;;;;;24.26;61.72;101129.78;4147392;28;19930;-63
2023/08/19 07:30:13;;;;;;;;;;;;;;;24.26;61.67;101127.06;4148041;28;20393;-63
2023/08/19 07:32:15;;;;;;;;;;;;;;;24.27;61.36;101120.72;4147647;28;20025;-63
2023/08/19 07:34:17;;;;;;;;;;;;;;;24.28;61.65;101118.88;4147612;28;20020;-63
2023/08/19 07:36:18;;;;;;;;;;;;;;;24.28;61.66;101135.88;4147342;28;19975;-64
2023/08/19 07:38:20;;;;;;;;;;;;;;;24.29;61.56;101161.78;4147368;28;19932;-63
2023/08/19 07:40:21;;;;;;;;;;;;;;;24.29;61.21;101160.91;4147738;28;19932;-64
2023/08/19 07:42:23;;;;;;;;;;;;;;;24.30;61.48;101170.66;4147280;28;20375;-64
2023/08/19 07:44:25;;;;;;;;;;;;;;;24.30;61.45;101178.72;4146058;28;20386;-64
2023/08/19 07:46:26;;;;;;;;;;;;;;;24.30;61.58;101193.00;4146593;28;19934;-64
2023/08/19 07:48:28;;;;;;;;;;;;;;;24.30;61.09;101195.69;4147448;28;19926;-64
2023/08/19 07:50:30;;;;;;;;;;;;;;;24.29;61.21;101187.78;4147561;28;19926;-64
2023/08/19 07:52:31;;;;;;;;;;;;;;;24.28;61.25;101178.88;4147723;28;19925;-64
2023/08/19 07:54:33;;;;;;;;;;;;;;;24.27;61.18;101165.59;4146931;28;19929;-64
2023/08/19 07:56:34;;;;;;;;;;;;;;;24.26;61.30;101162.03;4147281;28;19931;-64
2023/08/19 07:58:36;;;;;;;;;;;;;;;24.26;61.31;101186.22;4147332;28;19995;-64
2023/08/19 08:00:37;;;;;;;;;;;;;;;24.26;61.22;101213.09;4147468;28;19975;-64
2023/08/19 08:02:39;;;;;;;;;;;;;;;24.27;61.27;101230.09;4147797;28;20405;-64
2023/08/19 08:04:41;;;;;;;;;;;;;;;24.25;61.51;101227.50;4146667;28;20012;-64
2023/08/19 08:06:45;;;;;;;;;;;;;;;24.23;61.49;101224.97;4147501;28;19929;-64
2023/08/19 08:08:47;;;;;;;;;;;;;;;24.23;61.35;101227.66;4146964;28;20016;-64
2023/08/19 08:10:52;;;;;;;;;;;;;;;24.24;61.19;101225.81;4147135;28;19929;-63
2023/08/19 08:12:54;;;;;;;;;;;;;;;24.23;61.43;101237.56;4147454;28;19926;-64
2023/08/19 08:14:56;;;;;;;;;;;;;;;24.23;61.27;101240.25;4146805;28;20437;-64
2023/08/19 08:16:58;;;;;;;;;;;;;;;24.22;61.21;101260.88;4147413;28;19979;-65
2023/08/19 08:18:59;;;;;;;;;;;;;;;24.23;61.18;101277.88;4147145;28;20013;-64
2023/08/19 08:21:01;;;;;;;;;;;;;;;24.23;61.24;101302.06;4147482;28;19929;-64
2023/08/19 08:23:02;;;;;;;;;;;;;;;24.22;61.39;101319.16;4147359;28;19926;-64
2023/08/19 08:25:09;;;;;;;;;;;;;;;24.21;61.22;101320.16;4146302;28;19926;-64
2023/08/19 08:27:12;;;;;;;;;;;;;;;24.20;61.28;101308.53;4147402;28;20431;-65
2023/08/19 08:29:13;;;;;;;;;;;;;;;24.19;61.23;101320.28;4147267;28;20024;-64
2023/08/19 08:31:16;;;;;;;;;;;;;;;24.19;61.05;101325.66;4136516;28;20298;-64
2023/08/19 08:33:19;;;;;;;;;;;;;;;24.19;61.21;101314.91;4148326;28;19926;-64
2023/08/19 08:35:21;;;;;;;;;;;;;;;24.19;61.14;101298.78;4149402;28;19926;-64
2023/08/19 08:37:22;;;;;;;;;;;;;;;24.18;61.38;101286.31;4150285;28;19929;-62
2023/08/19 08:39:23;;;;;;;;;;;;;;;24.17;61.16;101279.25;4149639;28;20024;-63
2023/08/19 08:41:26;;;;;;;;;;;;;;;24.19;61.16;101292.53;4150156;28;19925;-63
2023/08/19 08:43:28;;;;;;;;;;;;;;;24.18;61.14;101304.28;4150257;28;20383;-63
2023/08/19 08:45:31;;;;;;;;;;;;;;;24.18;61.18;101277.38;4149355;28;19929;-63
2023/08/19 08:47:34;;;;;;;;;;;;;;;24.18;61.22;101282.78;4149866;28;19929;-63
2023/08/19 08:49:36;;;;;;;;;;;;;;;24.16;61.19;101293.66;4149831;28;20299;-62
2023/08/19 08:51:38;;;;;;;;;;;;;;;24.17;61.22;101305.25;4149889;28;19937;-63
2023/08/19 08:53:39;;;;;;;;;;;;;;;24.17;61.53;101297.19;4149768;28;19926;-63
2023/08/19 08:55:41;;;;;;;;;;;;;;;24.16;61.22;101325.06;4149333;28;19932;-63
2023/08/19 08:57:42;;;;;;;;;;;;;;;24.17;61.44;101334.81;4149875;28;19929;-63
2023/08/19 08:59:44;;;;;;;;;;;;;;;24.17;61.22;101333.00;4149872;28;20394;-62
2023/08/19 09:01:46;;;;;;;;;;;;;;;24.18;61.17;101328.44;4149903;28;19926;-62
2023/08/19 09:03:50;;;;;;;;;;;;;;;24.17;61.43;101324.94;4149904;28;19925;-62
2023/08/19 09:05:57;;;;;;;;;;;;;;;24.16;61.35;101292.81;4149133;28;19926;-62
2023/08/19 09:07:59;;;;;;;;;;;;;;;24.16;61.24;101279.38;4149803;28;20717;-62
2023/08/19 09:10:01;;;;;;;;;;;;;;;24.15;61.30;101301.84;4149647;28;20442;-63
2023/08/19 09:12:06;;;;;;;;;;;;;;;24.15;61.48;101312.59;4148518;28;19975;-63
2023/08/19 09:14:10;;;;;;;;;;;;;;;24.15;61.35;101318.81;4149837;28;19932;-63
2023/08/19 09:16:12;;;;;;;;;;;;;;;24.15;61.46;101318.81;4148687;28;19925;-63
2023/08/19 09:18:16;;;;;;;;;;;;;;;24.15;61.61;101336.78;4149504;28;19976;-63
2023/08/19 09:20:18;;;;;;;;;;;;;;;24.14;61.55;101364.66;4149779;28;20310;-63
2023/08/19 09:22:21;;;;;;;;;;;;;;;24.14;61.39;101372.72;4149269;28;19953;-63
2023/08/19 09:24:23;;;;;;;;;;;;;;;24.12;61.49;101354.03;4149342;28;19929;-64
2023/08/19 09:26:25;;;;;;;;;;;;;;;24.12;61.77;101351.34;4148777;28;19948;-63
2023/08/19 09:28:27;;;;;;;;;;;;;;;24.12;61.50;101369.28;4149508;28;19925;-63
2023/08/19 09:30:32;;;;;;;;;;;;;;;24.11;61.49;101370.25;4149638;28;20228;-63
2023/08/19 09:32:35;;;;;;;;;;;;;;;24.09;61.83;101384.66;4149103;28;19937;-63
2023/08/19 09:34:37;;;;;;;;;;;;;;;24.10;61.60;101404.34;4149519;28;19925;-63
2023/08/19 09:36:40;;;;;;;;;;;;;;;24.07;61.95;101400.09;4148679;28;19984;-63
2023/08/19 09:38:42;;;;;;;;;;;;;;;24.07;61.62;101402.78;4148925;28;20017;-62
2023/08/19 09:40:44;;;;;;;;;;;;;;;24.07;61.99;101424.28;4149280;28;19929;-62
2023/08/19 09:42:46;;;;;;;;;;;;;;;24.07;61.66;101439.53;4149114;28;20466;-63
2023/08/19 09:44:48;;;;;;;;;;;;;;;24.06;61.92;101417.19;4148591;28;20310;-64
2023/08/19 09:46:50;;;;;;;;;;;;;;;24.06;61.61;101395.69;4147494;28;19949;-64
2023/08/19 09:48:53;;;;;;;;;;;;;;;24.05;62.01;101406.56;4149240;28;19933;-63
2023/08/19 09:50:54;;;;;;;;;;;;;;;24.03;62.08;101404.00;4149035;28;20330;-63
2023/08/19 09:52:57;;;;;;;;;;;;;;;24.03;62.08;101400.47;4148611;28;19995;-63
2023/08/19 09:54:59;;;;;;;;;;;;;;;24.02;62.12;101417.56;4148544;28;19968;-63
2023/08/19 09:57:00;;;;;;;;;;;;;;;24.01;61.74;101415.84;4148676;28;20391;-63
2023/08/19 09:59:02;;;;;;;;;;;;;;;24.02;61.99;101436.38;4148849;28;19972;-63
2023/08/19 10:01:03;;;;;;;;;;;;;;;24.01;62.03;101435.53;4149029;28;19925;-63
2023/08/19 10:03:05;;;;;;;;;;;;;;;24.01;62.05;101429.28;4148708;28;19976;-63
2023/08/19 10:05:07;;;;;;;;;;;;;;;24.00;61.92;101441.00;4148374;28;19925;-63
2023/08/19 10:07:09;;;;;;;;;;;;;;;24.00;62.02;101430.25;4148126;28;19930;-63
2023/08/19 10:09:11;;;;;;;;;;;;;;;23.98;61.88;101427.69;4148883;28;19929;-63
2023/08/19 10:11:14;;;;;;;;;;;;;;;23.98;62.19;101427.69;4148767;28;20299;-64
2023/08/19 10:13:16;;;;;;;;;;;;;;;23.97;62.21;101417.94;4148578;28;19925;-63
2023/08/19 10:15:20;;;;;;;;;;;;;;;23.96;62.03;101392.03;4148260;28;19948;-63
2023/08/19 10:17:24;;;;;;;;;;;;;;;23.96;61.84;101397.41;4148666;28;19929;-63
2023/08/19 10:19:28;;;;;;;;;;;;;;;23.95;62.00;101403.78;4145491;28;19938;-65
2023/08/19 10:21:30;;;;;;;;;;;;;;;23.96;62.20;101448.47;4148429;28;19961;-63
2023/08/19 10:23:33;;;;;;;;;;;;;;;23.97;61.91;101436.72;4148781;28;20410;-63
2023/08/19 10:25:35;;;;;;;;;;;;;;;23.96;62.04;101413.53;4148145;28;19935;-63
2023/08/19 10:27:36;;;;;;;;;;;;;;;23.98;61.81;101429.53;4148309;28;20040;-64